Latest Weather Observations for Kiama

IDN60801

Issued at 11:35 pm EDT Monday 20 October 2014 (issued every 30 minutes, with the page automatically refreshed every 10 minutes)

About weather observations | Map of weather stations | Latest weather observations for NSW | Other Formats
Station Details ID: 068242 Name: KIAMA (BOMBO HEADLAND) Lat: -34.65 Lon: 150.86 Height: 15.5 m
Data from the previous 72 hours. | See also: Recent months at Kiama
Date/Time
EDT
Temp
°C
App
Temp
°C
Dew
Point
Rel
Hum
%
Delta-T
°C
Wind Press
QNH
hPa
Press
MSL
hPa
Rain
since 9 am
mm
Dir
 
Spd
km/h
Gust
km/h
Spd
kts
Gust
kts
20/11:30pm 14.2 12.4 10.8 80 1.8 S 11 15 6 8 - - 0.2
20/11:00pm 14.7 12.1 10.7 77 2.1 SSW 15 19 8 10 - - 0.2
20/10:30pm 14.8 12.2 10.6 76 2.2 SSW 15 19 8 10 - - 0.2
20/10:00pm 15.1 11.7 10.7 75 2.3 S 19 22 10 12 - - 0.2
20/09:30pm 15.5 12.6 10.9 74 2.4 S 17 22 9 12 - - 0.2
20/09:00pm 15.3 12.3 10.5 73 2.5 SSW 17 24 9 13 - - 0.2
20/08:30pm 16.1 11.9 11.1 72 2.7 SSE 24 28 13 15 - - 0.2
20/08:00pm 16.0 11.4 11.2 73 2.6 S 26 33 14 18 - - 0.2
20/07:30pm 16.2 12.7 10.9 71 2.8 S 20 28 11 15 - - 0.0
20/07:00pm 15.1 11.5 10.5 74 2.4 S 20 28 11 15 - - 0.0
20/06:30pm 15.9 10.8 10.7 71 2.8 S 28 33 15 18 - - 0.0
20/06:00pm 16.5 12.8 10.1 66 3.4 S 20 32 11 17 - - 0.0
20/05:30pm 16.8 12.9 9.5 62 3.8 S 20 28 11 15 - - 0.0
20/05:00pm 16.7 12.2 8.7 59 4.1 S 22 32 12 17 - - 0.0
20/04:30pm 16.6 11.9 9.3 62 3.8 S 24 32 13 17 - - 0.0
20/04:00pm 16.4 10.5 10.5 68 3.1 S 32 41 17 22 - - 0.0
20/03:30pm 16.5 11.3 10.1 66 3.4 S 28 35 15 19 - - 0.0
20/03:00pm 16.3 10.8 10.6 69 3.0 S 30 41 16 22 - - 0.0
20/02:30pm 16.6 11.9 10.5 67 3.2 S 26 39 14 21 - - 0.0
20/02:00pm 16.8 11.7 10.6 67 3.3 S 28 37 15 20 - - 0.0
20/01:30pm 16.5 11.8 11.9 74 2.5 S 28 39 15 21 - - 0.0
20/01:00pm 15.4 10.8 12.2 81 1.7 S 28 37 15 20 - - 0.0
20/12:30pm 16.4 10.9 12.4 77 2.2 S 33 46 18 25 - - 0.0
20/12:00pm 15.6 8.9 12.2 80 1.9 S 39 54 21 29 - - 0.0
20/11:42am 16.3 11.0 13.2 82 1.7 S 33 54 18 29 - - 0.0
20/11:30am 15.8 9.9 12.5 81 1.8 S 35 46 19 25 - - 0.0
20/11:00am 15.7 9.8 12.5 81 1.8 S 35 48 19 26 - - 0.0
20/10:30am 16.8 10.6 11.3 70 3.0 S 35 46 19 25 - - 0.0
20/10:00am 16.8 9.8 11.3 70 3.0 S 39 56 21 30 - - 0.0
20/09:30am 16.8 9.5 11.5 71 2.9 S 41 52 22 28 - - 0.0
20/09:00am 16.8 9.0 11.3 70 3.0 S 43 59 23 32 - - 0.0
20/08:30am 16.9 9.0 11.6 71 2.9 S 44 63 24 34 - - 0.0
20/08:08am 17.2 9.4 11.9 71 2.9 S 44 63 24 34 - - 0.0
20/08:00am 17.0 9.2 11.9 72 2.8 S 44 57 24 31 - - 0.0
20/07:30am 17.2 10.1 12.1 72 2.8 S 41 54 22 29 - - 0.0
20/07:00am 17.3 9.5 11.8 70 3.0 S 44 59 24 32 - - 0.0
20/06:30am 17.5 10.4 12.2 71 2.9 S 41 56 22 30 - - 0.0
20/06:00am 17.6 10.7 12.7 73 2.7 S 41 52 22 28 - - 0.0
20/05:30am 17.6 10.4 13.1 75 2.5 S 43 56 23 30 - - 0.0
20/05:00am 17.7 9.3 13.6 77 2.3 S 50 65 27 35 - - 0.0
20/04:33am 18.6 10.9 14.3 76 2.5 S 48 67 26 36 - - 0.0
20/04:30am 18.8 10.7 14.5 76 2.5 S 50 67 27 36 - - 0.0
20/04:20am 19.2 10.3 15.3 78 2.3 SSW 56 69 30 37 - - 0.0
20/04:16am 18.5 14.1 15.2 81 1.9 S 32 57 17 31 - - 0.0
20/04:00am 17.2 16.8 14.1 82 1.8 SSW 9 20 5 11 - - 0.0
20/03:30am 17.2 17.2 13.7 80 2.0 E 6 7 3 4 - - 0.0
20/03:00am 17.5 17.9 13.8 79 2.1 W 4 15 2 8 - - 0.0
20/02:30am 16.4 16.4 13.5 83 1.6 NW 6 13 3 7 - - 0.0
20/02:00am 17.1 18.1 14.4 84 1.5 W 2 6 1 3 - - 0.0
20/01:30am 16.9 17.9 14.2 84 1.5 W 2 6 1 3 - - 0.0
20/01:00am 17.3 18.8 14.6 84 1.6 CALM 0 6 0 3 - - 0.0
20/12:30am 17.2 16.9 14.5 84 1.6 NW 9 11 5 6 - - 0.0
20/12:00am 16.8 16.8 14.3 85 1.4 NNW 7 9 4 5 - - 0.0
 
Date/Time
EDT
Temp
°C
App
Temp
°C
Dew
Point
Rel
Hum
%
Delta-T
°C
Wind Press
QNH
hPa
Press
MSL
hPa
Rain
since 9 am
mm
Dir
 
Spd
km/h
Gust
km/h
Spd
kts
Gust
kts
19/11:30pm 16.4 17.6 13.7 84 1.5 CALM 0 0 0 0 - - 0.0
19/11:00pm 17.0 18.4 14.3 84 1.5 CALM 0 0 0 0 - - 0.0
19/10:30pm 17.4 18.8 14.5 83 1.7 CALM 0 0 0 0 - - 0.0
19/10:00pm 17.6 17.9 14.5 82 1.8 N 6 9 3 5 - - 0.0
19/09:30pm 18.0 18.2 14.7 81 1.9 N 7 11 4 6 - - 0.0
19/09:00pm 18.1 17.6 15.0 82 1.8 N 11 15 6 8 - - 0.0
19/08:30pm 18.4 18.4 15.1 81 1.9 N 9 15 5 8 - - 0.0
19/08:00pm 18.5 18.7 14.8 79 2.2 N 7 13 4 7 - - 0.0
19/07:30pm 18.9 17.2 14.6 76 2.5 N 17 24 9 13 - - 0.0
19/07:00pm 19.0 16.3 14.5 75 2.6 N 22 30 12 16 - - 0.0
19/06:30pm 19.3 16.5 14.3 73 2.9 N 22 26 12 14 - - 0.0
19/06:00pm 19.7 17.3 14.5 72 3.0 N 20 30 11 16 - - 0.0
19/05:30pm 19.9 17.2 14.7 72 3.0 N 22 30 12 16 - - 0.0
19/05:00pm 20.4 18.4 15.0 71 3.2 N 19 26 10 14 - - 0.0
19/04:30pm 20.4 17.7 14.7 70 3.3 N 22 32 12 17 - - 0.0
19/04:00pm 20.6 18.5 14.7 69 3.5 N 19 28 10 15 - - 0.0
19/03:30pm 20.7 18.7 15.0 70 3.4 N 19 26 10 14 - - 0.0
19/03:00pm 21.2 19.3 15.1 68 3.6 NNE 19 24 10 13 - - 0.0
19/02:30pm 21.3 19.8 15.2 68 3.6 N 17 24 9 13 - - 0.0
19/02:00pm 20.9 18.3 15.0 69 3.5 N 22 30 12 16 - - 0.0
19/01:30pm 20.8 18.2 14.9 69 3.5 NNE 22 32 12 17 - - 0.0
19/01:00pm 20.6 17.5 14.5 68 3.6 NNE 24 33 13 18 - - 0.0
19/12:30pm 20.6 17.8 14.3 67 3.7 NNE 22 32 12 17 - - 0.0
19/12:00pm 20.5 17.0 13.5 64 4.0 NNE 24 32 13 17 - - 0.0
19/11:30am 20.5 17.9 13.2 63 4.2 NNE 19 26 10 14 - - 0.0
19/11:00am 20.1 17.3 12.6 62 4.2 NNE 19 26 10 14 - - 0.0
19/10:30am 20.1 17.4 11.8 59 4.6 NNE 17 24 9 13 - - 0.0
19/10:00am 19.5 16.7 11.3 59 4.5 NNE 17 22 9 12 - - 0.0
19/09:30am 19.2 16.8 11.3 60 4.3 NNE 15 19 8 10 - - 0.0
19/09:00am 18.0 15.9 11.1 64 3.7 N 13 19 7 10 - - 0.0
19/08:30am 16.7 15.4 11.2 70 3.0 N 9 13 5 7 - - 0.0
19/08:00am 15.3 13.7 10.3 72 2.6 N 9 15 5 8 - - 0.0
19/07:30am 13.7 11.5 9.4 75 2.2 NNW 11 17 6 9 - - 0.0
19/07:00am 12.8 10.5 8.9 77 2.0 NNW 11 17 6 9 - - 0.0
19/06:30am 12.2 9.7 8.3 77 1.9 NNW 11 15 6 8 - - 0.0
19/06:00am 12.1 10.3 8.0 76 2.0 NNW 7 13 4 7 - - 0.0
19/05:30am 12.9 10.5 8.6 75 2.1 NNW 11 15 6 8 - - 0.0
19/05:00am 12.5 9.7 8.4 76 2.0 NW 13 17 7 9 - - 0.0
19/04:30am 12.6 10.5 8.3 75 2.1 NNW 9 15 5 8 - - 0.0
19/04:00am 12.4 9.9 8.1 75 2.1 NW 11 15 6 8 - - 0.0
19/03:30am 12.7 10.2 8.4 75 2.1 NW 11 15 6 8 - - 0.0
19/03:00am 12.9 10.4 8.4 74 2.2 NW 11 15 6 8 - - 0.0
19/02:30am 12.9 11.2 8.2 73 2.3 NW 7 11 4 6 - - 0.0
19/02:00am 13.4 11.0 8.7 73 2.4 NW 11 15 6 8 - - 0.0
19/01:30am 13.3 10.9 8.6 73 2.4 NW 11 15 6 8 - - 0.0
19/01:00am 13.6 11.2 8.7 72 2.5 NW 11 15 6 8 - - 0.0
19/12:30am 13.8 11.4 8.6 71 2.6 NW 11 13 6 7 - - 0.0
19/12:00am 14.1 11.3 8.5 69 2.8 NW 13 15 7 8 - - 0.0
 
Date/Time
EDT
Temp
°C
App
Temp
°C
Dew
Point
Rel
Hum
%
Delta-T
°C
Wind Press
QNH
hPa
Press
MSL
hPa
Rain
since 9 am
mm
Dir
 
Spd
km/h
Gust
km/h
Spd
kts
Gust
kts
18/11:30pm 14.2 11.4 8.6 69 2.8 WNW 13 15 7 8 - - 0.0
18/11:00pm 14.2 11.8 8.6 69 2.8 NW 11 15 6 8 - - 0.0
18/10:30pm 14.2 11.5 8.8 70 2.7 WNW 13 17 7 9 - - 0.0
18/10:00pm 14.2 11.1 9.0 71 2.6 NW 15 17 8 9 - - 0.0
18/09:30pm 14.5 11.8 9.1 70 2.8 NW 13 15 7 8 - - 0.0
18/09:00pm 14.7 12.7 8.6 67 3.1 NW 9 13 5 7 - - 0.0
18/08:30pm 15.9 14.1 9.3 65 3.4 NNW 9 15 5 8 - - 0.0
18/08:00pm 16.8 13.5 9.7 63 3.7 N 17 24 9 13 - - 0.0
18/07:30pm 16.7 13.7 9.4 62 3.8 N 15 22 8 12 - - 0.0
18/07:00pm 16.8 13.7 9.0 60 4.0 N 15 20 8 11 - - 0.0
18/06:30pm 17.2 14.1 8.9 58 4.3 NNE 15 22 8 12 - - 0.0
18/06:00pm 17.6 14.6 9.2 58 4.4 NNE 15 20 8 11 - - 0.0
18/05:30pm 18.0 15.3 9.1 56 4.6 NNE 13 19 7 10 - - 0.0
18/05:00pm 18.5 15.5 9.3 55 4.8 NNE 15 19 8 10 - - 0.0
18/04:30pm 18.7 16.0 8.9 53 5.1 NNE 13 20 7 11 - - 0.0
18/04:00pm 19.1 16.3 9.9 55 4.9 NE 15 19 8 10 - - 0.0
18/03:30pm 18.8 15.9 9.8 56 4.8 NE 15 20 8 11 - - 0.0
18/03:00pm 19.1 16.3 10.1 56 4.8 NE 15 20 8 11 - - 0.0
18/02:30pm 18.9 15.8 10.2 57 4.7 NE 17 22 9 12 - - 0.0
18/02:00pm 19.2 16.2 10.7 58 4.6 NE 17 22 9 12 - - 0.0
18/01:30pm 18.7 15.2 10.3 58 4.5 NE 19 22 10 12 - - 0.0
18/01:00pm 18.4 14.8 9.7 57 4.6 NE 19 22 10 12 - - 0.0
18/12:30pm 18.8 16.4 10.1 57 4.6 NE 13 19 7 10 - - 0.0
18/12:00pm 19.4 17.5 10.4 56 4.9 NE 11 15 6 8 - - 0.0
18/11:30am 19.1 17.3 9.6 54 5.0 NE 9 17 5 9 - - 0.0
18/11:00am 18.7 17.1 8.9 53 5.1 ENE 7 11 4 6 - - 0.0
18/10:30am 19.1 18.0 9.9 55 4.9 NE 6 9 3 5 - - 0.0
18/10:00am 18.5 17.0 8.5 52 5.2 E 6 7 3 4 - - 0.0
18/09:30am 18.1 17.1 8.7 54 4.9 E 4 6 2 3 - - 0.0
18/09:00am 17.2 16.1 8.6 57 4.4 ESE 4 6 2 3 - - 0.0
18/08:30am 16.5 16.5 9.7 64 3.6 CALM 0 0 0 0 - - 0.0
18/08:00am 15.3 14.6 9.9 70 2.8 W 4 7 2 4 - - 0.0
18/07:30am 13.6 12.1 9.1 74 2.3 W 7 11 4 6 - - 0.0
18/07:00am 12.1 9.9 8.0 76 2.0 W 9 13 5 7 - - 0.0
18/06:30am 11.8 10.1 7.5 75 2.1 W 6 7 3 4 - - 0.0
18/06:00am 11.0 9.0 6.9 76 1.9 W 7 9 4 5 - - 0.0
18/05:30am 11.4 8.3 7.1 75 2.1 W 13 13 7 7 - - 0.0
18/05:00am 11.4 8.6 6.9 74 2.1 W 11 13 6 7 - - 0.0
18/04:30am 11.8 9.5 7.3 74 2.2 W 9 11 5 6 - - 0.0
18/04:00am 11.8 9.4 7.1 73 2.3 W 9 11 5 6 - - 0.0
18/03:30am 11.6 9.2 7.1 74 2.2 W 9 11 5 6 - - 0.0
18/03:00am 11.8 9.0 7.1 73 2.3 W 11 11 6 6 - - 0.0
18/02:30am 12.1 10.2 7.4 73 2.3 W 7 9 4 5 - - 0.0
18/02:00am 12.3 10.4 7.6 73 2.3 W 7 9 4 5 - - 0.0
18/01:30am 12.4 10.1 7.5 72 2.4 W 9 11 5 6 - - 0.0
18/01:00am 12.8 10.9 7.7 71 2.5 W 7 9 4 5 - - 0.0
18/12:30am 14.0 12.2 8.0 67 3.0 SW 7 11 4 6 - - 0.0
18/12:00am 15.4 12.9 8.4 63 3.5 SSW 11 15 6 8 - - 0.0

Other Formats:

Comma delimited format used in spreadsheet applications
http://www.bom.gov.au/fwo/IDN60801/IDN60801.95749.axf

JavaScript Object Notation format (JSON) in row-major order
http://www.bom.gov.au/fwo/IDN60801/IDN60801.95749.json